Terminal Aerodrome Forecast
Issued by NWS

Home | Current Version | Previous Version | Text Only | Print | Product List | Glossary On
Versions: 1 2 3 4 5 6 7 8 9 10 11 12 13 14 15 16 17 18 19 20 21 22 23
560
FTUS43 KDLH 270525
TAFBRD
TAF
KBRD 270525Z 2706/2806 31012G20KT P6SM SKC
     FM271200 31015G23KT P6SM OVC045
     FM272000 32013G23KT P6SM VCSH OVC023
     FM280100 35009KT P6SM OVC017=

USA.gov is the U.S. government's official web portal to all federal, state and local government web resources and services.